Time;durP1;ratioP1;P1;durP2;ratioP2;P2;SDS_P1;SDS_P2;PMS_P1;PMS_P2;Temp;Humidity;BMP_temperature;BMP_pressure;BME280_temperature;BME280_humidity;BME280_pressure;Samples;Min_cycle;Max_cycle;Signal;HPM_P1;HPM_P2
2022/04/24 00:01:25;;;;;;;;;20.75;17.25;;;;;;;;5098924;27;45499;-67
2022/04/24 00:03:51;;;;;;;;;19.50;17.00;;;;;;;;5098726;27;45292;-66
2022/04/24 00:06:16;;;;;;;;;16.50;15.25;;;;;;;;5098426;27;45332;-66
2022/04/24 00:08:41;;;;;;;;;24.75;16.00;;;;;;;;5097039;27;45287;-67
2022/04/24 00:11:07;;;;;;;;;18.50;16.75;;;;;;;;5098506;27;45326;-66
2022/04/24 00:13:38;;;;;;;;;20.50;16.00;;;;;;;;5098687;27;45392;-67
2022/04/24 00:16:03;;;;;;;;;14.50;12.75;;;;;;;;5098417;27;45926;-67
2022/04/24 00:18:29;;;;;;;;;17.75;14.25;;;;;;;;5098088;27;45510;-71
2022/04/24 00:20:55;;;;;;;;;19.25;16.00;;;;;;;;5098637;27;45340;-67
2022/04/24 00:23:20;;;;;;;;;16.00;13.50;;;;;;;;5098362;27;45439;-69
2022/04/24 00:25:45;;;;;;;;;13.00;12.50;;;;;;;;5096882;27;47871;-67
2022/04/24 00:28:11;;;;;;;;;17.75;16.50;;;;;;;;5098225;27;45427;-67
2022/04/24 00:30:36;;;;;;;;;13.00;12.25;;;;;;;;5099242;27;45251;-67
2022/04/24 00:33:01;;;;;;;;;13.25;11.25;;;;;;;;5100081;27;45320;-67
2022/04/24 00:35:27;;;;;;;;;14.00;12.50;;;;;;;;5099887;27;46200;-67
2022/04/24 00:37:53;;;;;;;;;17.75;15.25;;;;;;;;5099476;27;45450;-66
2022/04/24 00:40:19;;;;;;;;;18.25;17.00;;;;;;;;5099796;27;45451;-66
2022/04/24 00:42:44;;;;;;;;;23.50;19.00;;;;;;;;5099384;27;45491;-66
2022/04/24 00:45:10;;;;;;;;;19.50;14.00;;;;;;;;5099138;27;46115;-67
2022/04/24 00:47:35;;;;;;;;;15.25;13.50;;;;;;;;5099325;27;45661;-66
2022/04/24 00:50:00;;;;;;;;;13.50;11.00;;;;;;;;5099520;27;45390;-66
2022/04/24 00:52:26;;;;;;;;;17.50;15.00;;;;;;;;5100128;27;45329;-67
2022/04/24 00:54:51;;;;;;;;;16.00;13.25;;;;;;;;5099490;27;45961;-66
2022/04/24 00:57:17;;;;;;;;;16.50;13.00;;;;;;;;5098267;27;45498;-66
2022/04/24 00:59:42;;;;;;;;;13.75;11.25;;;;;;;;5099450;27;45481;-67
2022/04/24 01:02:08;;;;;;;;;14.50;12.50;;;;;;;;5099555;27;45284;-66
2022/04/24 01:04:35;;;;;;;;;15.75;10.75;;;;;;;;5099178;27;46082;-66
2022/04/24 01:07:00;;;;;;;;;13.50;12.50;;;;;;;;5099495;27;45401;-67
2022/04/24 01:09:26;;;;;;;;;13.75;12.75;;;;;;;;5099530;27;45861;-67
2022/04/24 01:11:53;;;;;;;;;15.00;13.00;;;;;;;;5099400;27;45449;-66
2022/04/24 01:14:19;;;;;;;;;13.75;11.25;;;;;;;;5098841;27;45499;-67
2022/04/24 01:16:45;;;;;;;;;8.25;7.25;;;;;;;;5099178;27;45251;-66
2022/04/24 01:19:12;;;;;;;;;9.50;7.00;;;;;;;;5099208;27;45350;-66
2022/04/24 01:21:39;;;;;;;;;9.00;7.25;;;;;;;;5098702;27;45509;-66
2022/04/24 01:24:05;;;;;;;;;7.25;7.00;;;;;;;;5098790;27;46280;-66
2022/04/24 01:26:31;;;;;;;;;8.75;7.75;;;;;;;;5099127;27;45244;-67
2022/04/24 01:28:56;;;;;;;;;6.25;5.00;;;;;;;;5099029;27;45467;-66
2022/04/24 01:31:21;;;;;;;;;8.50;7.25;;;;;;;;5099110;27;45484;-66
2022/04/24 01:33:47;;;;;;;;;9.00;7.00;;;;;;;;5098689;27;45442;-66
2022/04/24 01:36:12;;;;;;;;;7.00;6.00;;;;;;;;5098643;27;45965;-66
2022/04/24 01:38:38;;;;;;;;;8.50;7.00;;;;;;;;5098516;27;45401;-66
2022/04/24 01:41:03;;;;;;;;;8.75;7.25;;;;;;;;5099090;27;45441;-67
2022/04/24 01:43:29;;;;;;;;;7.00;5.25;;;;;;;;5098909;27;45459;-66
2022/04/24 01:45:54;;;;;;;;;5.00;4.25;;;;;;;;5098794;27;45273;-66
2022/04/24 01:48:20;;;;;;;;;5.25;5.25;;;;;;;;5098780;27;45788;-67
2022/04/24 01:50:45;;;;;;;;;5.50;4.50;;;;;;;;5098956;27;45219;-66
2022/04/24 01:53:11;;;;;;;;;7.75;5.50;;;;;;;;5097420;27;45369;-67
2022/04/24 01:55:36;;;;;;;;;8.50;6.25;;;;;;;;5098435;27;45302;-66
2022/04/24 01:58:02;;;;;;;;;8.50;6.00;;;;;;;;5098737;27;45326;-66
2022/04/24 02:00:28;;;;;;;;;7.00;6.75;;;;;;;;5098572;27;45453;-66
2022/04/24 02:02:54;;;;;;;;;13.50;7.00;;;;;;;;5098186;27;45441;-66
2022/04/24 02:05:19;;;;;;;;;8.25;7.00;;;;;;;;5098151;27;45468;-66
2022/04/24 02:07:44;;;;;;;;;6.25;5.75;;;;;;;;5098488;27;45381;-66
2022/04/24 02:10:10;;;;;;;;;7.25;6.50;;;;;;;;5098549;27;45152;-66
2022/04/24 02:12:39;;;;;;;;;6.75;6.25;;;;;;;;5098279;27;45465;-66
2022/04/24 02:15:05;;;;;;;;;6.00;6.00;;;;;;;;5098300;27;45399;-66
2022/04/24 02:17:30;;;;;;;;;8.00;7.00;;;;;;;;5098131;27;45444;-66
2022/04/24 02:19:55;;;;;;;;;7.25;6.00;;;;;;;;5098502;27;45385;-68
2022/04/24 02:22:21;;;;;;;;;9.00;7.00;;;;;;;;5097813;27;45929;-66
2022/04/24 02:24:46;;;;;;;;;7.75;6.00;;;;;;;;5097935;27;45429;-66
2022/04/24 02:27:11;;;;;;;;;7.00;6.00;;;;;;;;5098169;27;45486;-66
2022/04/24 02:29:37;;;;;;;;;9.00;8.00;;;;;;;;5098394;27;45308;-66
2022/04/24 02:32:02;;;;;;;;;8.25;7.25;;;;;;;;5098027;27;45457;-66
2022/04/24 02:34:28;;;;;;;;;8.25;6.50;;;;;;;;5097944;27;45348;-66
2022/04/24 02:36:53;;;;;;;;;6.50;6.25;;;;;;;;5098032;27;45168;-66
2022/04/24 02:39:18;;;;;;;;;10.75;7.00;;;;;;;;5098220;27;45399;-66
2022/04/24 02:41:44;;;;;;;;;9.50;8.25;;;;;;;;5097574;27;46249;-66
2022/04/24 02:44:09;;;;;;;;;8.00;7.50;;;;;;;;5097596;27;45289;-66
2022/04/24 02:46:34;;;;;;;;;12.00;8.50;;;;;;;;5098312;27;45258;-66
2022/04/24 02:49:00;;;;;;;;;8.50;6.25;;;;;;;;5096759;27;45550;-66
2022/04/24 02:51:25;;;;;;;;;8.00;6.00;;;;;;;;5097713;27;46020;-66
2022/04/24 02:53:50;;;;;;;;;6.00;4.75;;;;;;;;5097718;27;45456;-66
2022/04/24 02:56:16;;;;;;;;;7.75;7.25;;;;;;;;5097797;27;45400;-66
2022/04/24 02:58:44;;;;;;;;;4.75;4.00;;;;;;;;5098007;27;45349;-66
2022/04/24 03:01:09;;;;;;;;;8.00;5.25;;;;;;;;5097299;27;46114;-68
2022/04/24 03:03:35;;;;;;;;;7.25;5.50;;;;;;;;5097562;27;45485;-66
2022/04/24 03:06:00;;;;;;;;;6.25;5.50;;;;;;;;5100544;27;45413;-66
2022/04/24 03:08:26;;;;;;;;;6.67;4.00;;;;;;;;5101212;27;45267;-66
2022/04/24 03:10:51;;;;;;;;;7.25;6.75;;;;;;;;5101000;27;45516;-66
2022/04/24 03:13:17;;;;;;;;;7.75;6.00;;;;;;;;5101032;27;45417;-66
2022/04/24 03:15:42;;;;;;;;;6.50;5.25;;;;;;;;5101342;27;45247;-66
2022/04/24 03:18:08;;;;;;;;;8.67;6.00;;;;;;;;5101758;27;45808;-66
2022/04/24 03:20:33;;;;;;;;;6.25;6.25;;;;;;;;5101259;27;46033;-66
2022/04/24 03:22:58;;;;;;;;;6.25;5.50;;;;;;;;5100383;27;45412;-66
2022/04/24 03:25:24;;;;;;;;;6.00;5.25;;;;;;;;5101054;27;45309;-66
2022/04/24 03:27:49;;;;;;;;;6.00;5.00;;;;;;;;5101280;27;45217;-66
2022/04/24 03:30:15;;;;;;;;;6.33;5.00;;;;;;;;5100808;27;45525;-66
2022/04/24 03:32:40;;;;;;;;;7.25;6.25;;;;;;;;5100825;27;45622;-66
2022/04/24 03:35:07;;;;;;;;;8.00;7.00;;;;;;;;5101310;27;45321;-66
2022/04/24 03:37:32;;;;;;;;;8.00;7.00;;;;;;;;5100925;27;45513;-65
2022/04/24 03:39:57;;;;;;;;;9.25;8.00;;;;;;;;5100310;27;45456;-66
2022/04/24 03:42:25;;;;;;;;;7.00;6.00;;;;;;;;5100560;27;45486;-66
2022/04/24 03:44:52;;;;;;;;;6.00;5.25;;;;;;;;5100724;27;45488;-66
2022/04/24 03:47:19;;;;;;;;;6.75;6.00;;;;;;;;5100857;27;45421;-67
2022/04/24 03:49:44;;;;;;;;;9.25;7.00;;;;;;;;5100499;27;46247;-66
2022/04/24 03:52:11;;;;;;;;;6.25;6.00;;;;;;;;5100671;27;45957;-66
2022/04/24 03:54:36;;;;;;;;;6.00;5.00;;;;;;;;5100761;27;45507;-66
2022/04/24 03:57:02;;;;;;;;;7.50;7.50;;;;;;;;5100582;27;45511;-66
2022/04/24 03:59:27;;;;;;;;;8.50;6.50;;;;;;;;5100201;27;46033;-67
2022/04/24 04:01:54;;;;;;;;;6.00;4.75;;;;;;;;5100534;27;45361;-66
2022/04/24 04:04:19;;;;;;;;;6.75;5.25;;;;;;;;5100298;27;45255;-66
2022/04/24 04:06:44;;;;;;;;;8.00;7.00;;;;;;;;5100683;27;45325;-66
2022/04/24 04:09:10;;;;;;;;;7.00;6.50;;;;;;;;5100455;27;45456;-67
2022/04/24 04:11:35;;;;;;;;;6.75;6.25;;;;;;;;5100209;27;45510;-67
2022/04/24 04:14:01;;;;;;;;;6.75;5.25;;;;;;;;5100483;27;45688;-67
2022/04/24 04:16:26;;;;;;;;;5.25;4.00;;;;;;;;5099436;27;45349;-67
2022/04/24 04:18:51;;;;;;;;;9.00;6.00;;;;;;;;5099726;27;45876;-67
2022/04/24 04:21:17;;;;;;;;;5.75;5.00;;;;;;;;5099851;27;45439;-67
2022/04/24 04:23:42;;;;;;;;;9.00;7.00;;;;;;;;5099450;27;45433;-66
2022/04/24 04:26:07;;;;;;;;;7.75;6.25;;;;;;;;5100628;27;45316;-66
2022/04/24 04:28:33;;;;;;;;;6.00;5.50;;;;;;;;5100004;27;45301;-66
2022/04/24 04:30:58;;;;;;;;;7.50;6.50;;;;;;;;5099787;27;45438;-66
2022/04/24 04:33:23;;;;;;;;;6.00;6.00;;;;;;;;5100036;27;46039;-66
2022/04/24 04:35:49;;;;;;;;;6.00;6.00;;;;;;;;5100003;27;45399;-66
2022/04/24 04:38:17;;;;;;;;;5.75;5.25;;;;;;;;5099583;27;45358;-66
2022/04/24 04:40:42;;;;;;;;;4.25;4.25;;;;;;;;5099986;27;45165;-66
2022/04/24 04:43:07;;;;;;;;;6.50;5.75;;;;;;;;5099682;27;45554;-66
2022/04/24 04:45:33;;;;;;;;;5.75;5.75;;;;;;;;5100126;27;45518;-66
2022/04/24 04:47:58;;;;;;;;;5.00;4.50;;;;;;;;5099547;27;46098;-66
2022/04/24 04:50:23;;;;;;;;;9.00;6.00;;;;;;;;5099525;27;45262;-66
2022/04/24 04:52:49;;;;;;;;;3.00;3.00;;;;;;;;5099462;27;45426;-67
2022/04/24 04:55:14;;;;;;;;;6.00;6.00;;;;;;;;5099370;27;45498;-66
2022/04/24 04:57:39;;;;;;;;;8.00;7.00;;;;;;;;5099489;27;46042;-66
2022/04/24 05:00:06;;;;;;;;;5.00;4.00;;;;;;;;5099382;27;45448;-66
2022/04/24 05:02:35;;;;;;;;;7.25;6.00;;;;;;;;5099502;27;45428;-66
2022/04/24 05:05:00;;;;;;;;;4.00;3.00;;;;;;;;5099405;27;45519;-66
2022/04/24 05:07:26;;;;;;;;;5.00;5.00;;;;;;;;5097677;27;47576;-66
2022/04/24 05:09:51;;;;;;;;;7.00;5.25;;;;;;;;5099282;27;45505;-66
2022/04/24 05:12:16;;;;;;;;;5.00;4.00;;;;;;;;5099433;27;45491;-66
2022/04/24 05:14:42;;;;;;;;;5.00;4.00;;;;;;;;5099515;27;45245;-66
2022/04/24 05:17:07;;;;;;;;;4.25;4.25;;;;;;;;5099233;27;46053;-66
2022/04/24 05:19:32;;;;;;;;;5.75;5.00;;;;;;;;5099051;27;45463;-66
2022/04/24 05:21:58;;;;;;;;;7.25;6.00;;;;;;;;5099202;27;45418;-66
2022/04/24 05:24:23;;;;;;;;;4.00;3.67;;;;;;;;5097944;27;45354;-66
2022/04/24 05:26:48;;;;;;;;;4.33;4.33;;;;;;;;5098876;27;46030;-66
2022/04/24 05:29:14;;;;;;;;;4.25;3.00;;;;;;;;5099190;27;45562;-66
2022/04/24 05:31:39;;;;;;;;;5.00;4.50;;;;;;;;5098875;27;45418;-66
2022/04/24 05:34:05;;;;;;;;;5.50;5.00;;;;;;;;5099048;27;45467;-66
2022/04/24 05:36:30;;;;;;;;;4.75;4.25;;;;;;;;5099010;27;45333;-66
2022/04/24 05:38:56;;;;;;;;;4.50;4.00;;;;;;;;5098772;27;45755;-66
2022/04/24 05:41:21;;;;;;;;;4.33;4.00;;;;;;;;5098732;27;45498;-66
2022/04/24 05:43:46;;;;;;;;;5.00;4.00;;;;;;;;5098853;27;45442;-66
2022/04/24 05:46:12;;;;;;;;;6.50;4.00;;;;;;;;5098797;27;45342;-66
2022/04/24 05:48:37;;;;;;;;;11.50;9.00;;;;;;;;5098673;27;45487;-66
2022/04/24 05:51:02;;;;;;;;;5.00;4.50;;;;;;;;5098821;27;45499;-66
2022/04/24 05:53:28;;;;;;;;;4.75;4.75;;;;;;;;5098886;27;45427;-66
2022/04/24 05:55:53;;;;;;;;;5.33;4.00;;;;;;;;5098488;27;45599;-66
2022/04/24 05:58:18;;;;;;;;;3.00;3.00;;;;;;;;5098430;27;45452;-66
2022/04/24 06:00:44;;;;;;;;;4.00;4.00;;;;;;;;5098947;27;45321;-66
2022/04/24 06:03:09;;;;;;;;;4.00;3.00;;;;;;;;5098828;27;45365;-66
2022/04/24 06:05:36;;;;;;;;;6.00;3.00;;;;;;;;5098203;27;45470;-70
2022/04/24 06:08:01;;;;;;;;;4.00;2.75;;;;;;;;5098176;27;45686;-68
2022/04/24 06:10:26;;;;;;;;;4.33;4.33;;;;;;;;5097854;27;45226;-67
2022/04/24 06:12:55;;;;;;;;;3.00;3.00;;;;;;;;5097764;27;45412;-66
2022/04/24 06:15:22;;;;;;;;;4.33;3.00;;;;;;;;5096041;27;45308;-67
2022/04/24 06:17:49;;;;;;;;;4.00;2.00;;;;;;;;5097505;27;45251;-66
2022/04/24 06:20:15;;;;;;;;;3.00;3.00;;;;;;;;5097582;27;45463;-66
2022/04/24 06:22:44;;;;;;;;;3.00;2.00;;;;;;;;5097501;27;45563;-67
2022/04/24 06:25:14;;;;;;;;;1.33;1.00;;;;;;;;5094479;27;45608;-70
2022/04/24 06:27:39;;;;;;;;;1.67;1.00;;;;;;;;5097298;27;45863;-67
2022/04/24 06:30:05;;;;;;;;;2.67;1.67;;;;;;;;5097273;27;45473;-66
2022/04/24 06:32:30;;;;;;;;;2.67;1.67;;;;;;;;5094698;27;45409;-67
2022/04/24 06:34:55;;;;;;;;;0.00;0.00;;;;;;;;5096911;27;45920;-66
2022/04/24 06:37:21;;;;;;;;;1.00;1.00;;;;;;;;5097046;27;45738;-67
2022/04/24 06:39:46;;;;;;;;;1.00;1.00;;;;;;;;5096769;27;45383;-68
2022/04/24 06:42:11;;;;;;;;;3.67;3.67;;;;;;;;5097328;27;45422;-66
2022/04/24 06:44:37;;;;;;;;;3.00;2.00;;;;;;;;5096220;27;45979;-67
2022/04/24 06:47:02;;;;;;;;;2.67;2.67;;;;;;;;5096130;27;45401;-72
2022/04/24 06:49:28;;;;;;;;;3.00;2.00;;;;;;;;5096722;27;45295;-67
2022/04/24 06:51:53;;;;;;;;;3.00;2.00;;;;;;;;5097366;27;45407;-67
2022/04/24 06:54:18;;;;;;;;;3.00;3.00;;;;;;;;5096861;27;45319;-66
2022/04/24 06:56:44;;;;;;;;;4.00;3.00;;;;;;;;5096487;27;45477;-67
2022/04/24 06:59:09;;;;;;;;;4.00;2.33;;;;;;;;5096757;27;45224;-68
2022/04/24 07:01:34;;;;;;;;;5.00;3.00;;;;;;;;5097096;27;45261;-67
2022/04/24 07:04:00;;;;;;;;;5.00;4.00;;;;;;;;5096508;27;45330;-67
2022/04/24 07:06:25;;;;;;;;;4.00;3.33;;;;;;;;5097079;27;45519;-67
2022/04/24 07:08:50;;;;;;;;;2.00;2.00;;;;;;;;5097995;27;45502;-66
2022/04/24 07:11:17;;;;;;;;;4.00;3.00;;;;;;;;5098082;27;45343;-65
2022/04/24 07:13:44;;;;;;;;;3.00;3.00;;;;;;;;5111086;27;45440;-65
2022/04/24 07:16:09;;;;;;;;;3.33;3.00;;;;;;;;5116483;27;45570;-66
2022/04/24 07:18:35;;;;;;;;;3.00;2.00;;;;;;;;5116972;27;45360;-66
2022/04/24 07:21:02;;;;;;;;;4.00;3.00;;;;;;;;5116824;27;45294;-66
2022/04/24 07:23:28;;;;;;;;;3.00;3.00;;;;;;;;5116687;27;45464;-67
2022/04/24 07:25:53;;;;;;;;;4.00;2.00;;;;;;;;5116872;27;45844;-65
2022/04/24 07:28:19;;;;;;;;;4.67;4.67;;;;;;;;5116875;27;45538;-68
2022/04/24 07:30:45;;;;;;;;;1.00;1.00;;;;;;;;5117258;27;46247;-65
2022/04/24 07:33:11;;;;;;;;;4.00;3.00;;;;;;;;5099901;27;45945;-67
2022/04/24 07:35:37;;;;;;;;;2.67;2.00;;;;;;;;5095540;27;45756;-67
2022/04/24 07:38:03;;;;;;;;;2.00;2.00;;;;;;;;5095725;27;45477;-65
2022/04/24 07:40:29;;;;;;;;;7.00;6.50;;;;;;;;5095542;27;45375;-64
2022/04/24 07:42:55;;;;;;;;;5.67;4.00;;;;;;;;5095137;27;46105;-64
2022/04/24 07:45:29;;;;;;;;;4.00;3.33;;;;;;;;5096055;27;45377;-69
2022/04/24 07:47:55;;;;;;;;;3.33;3.00;;;;;;;;5096319;27;45347;-65
2022/04/24 07:50:22;;;;;;;;;3.50;3.00;;;;;;;;5096498;27;45412;-65
2022/04/24 07:52:48;;;;;;;;;2.50;2.50;;;;;;;;5098740;27;45585;-65
2022/04/24 07:55:17;;;;;;;;;4.00;2.33;;;;;;;;5099694;27;45460;-64
2022/04/24 07:57:42;;;;;;;;;3.00;3.00;;;;;;;;5099545;27;45452;-65
2022/04/24 08:00:09;;;;;;;;;6.33;3.33;;;;;;;;5014406;27;45489;-65
2022/04/24 08:02:48;;;;;;;;;3.00;2.67;;;;;;;;5017758;28;45437;-67
2022/04/24 08:05:27;;;;;;;;;6.25;5.00;;;;;;;;5018557;28;45553;-66
2022/04/24 08:07:53;;;;;;;;;4.50;3.50;;;;;;;;5017674;28;45434;-65
2022/04/24 08:10:19;;;;;;;;;4.00;4.00;;;;;;;;5018719;28;45460;-65
2022/04/24 08:12:45;;;;;;;;;3.00;3.00;;;;;;;;5018062;28;46434;-66
2022/04/24 08:15:10;;;;;;;;;6.00;6.00;;;;;;;;5017524;28;45569;-65
2022/04/24 08:17:36;;;;;;;;;4.00;3.00;;;;;;;;5018011;28;45517;-64
2022/04/24 08:20:02;;;;;;;;;4.00;3.00;;;;;;;;5017834;28;45485;-66
2022/04/24 08:22:35;;;;;;;;;9.50;9.25;;;;;;;;5017509;28;46239;-66
2022/04/24 08:25:00;;;;;;;;;7.00;5.67;;;;;;;;5017477;28;45505;-66
2022/04/24 08:27:26;;;;;;;;;10.75;8.00;;;;;;;;5017767;28;45335;-65
2022/04/24 08:29:51;;;;;;;;;6.00;5.67;;;;;;;;5018891;28;45460;-65
2022/04/24 08:32:20;;;;;;;;;9.50;8.75;;;;;;;;5018009;28;45477;-65
2022/04/24 08:34:45;;;;;;;;;7.00;6.00;;;;;;;;5016821;28;45433;-65
2022/04/24 08:37:10;;;;;;;;;6.75;6.25;;;;;;;;5017637;28;45645;-66
2022/04/24 08:39:36;;;;;;;;;6.00;5.00;;;;;;;;5017562;28;45512;-65
2022/04/24 08:42:02;;;;;;;;;5.00;5.00;;;;;;;;5017009;28;46512;-65
2022/04/24 08:44:29;;;;;;;;;3.67;3.00;;;;;;;;5016803;28;45548;-66
2022/04/24 08:46:55;;;;;;;;;4.00;4.00;;;;;;;;5017552;28;45311;-65
2022/04/24 08:49:22;;;;;;;;;5.67;5.67;;;;;;;;5017535;28;45610;-66
2022/04/24 08:51:48;;;;;;;;;9.75;9.00;;;;;;;;5016170;28;45523;-66
2022/04/24 08:54:14;;;;;;;;;6.00;6.00;;;;;;;;5016513;28;45506;-66
2022/04/24 08:56:39;;;;;;;;;8.00;7.00;;;;;;;;5016737;28;45789;-64
2022/04/24 08:59:05;;;;;;;;;8.75;8.00;;;;;;;;5017016;28;45494;-65
2022/04/24 09:01:41;;;;;;;;;8.00;7.33;;;;;;;;5019634;28;45872;-65
2022/04/24 09:04:07;;;;;;;;;7.67;7.67;;;;;;;;5016525;28;45406;-64
2022/04/24 09:06:32;;;;;;;;;8.25;7.00;;;;;;;;5016470;28;45459;-66
2022/04/24 09:09:04;;;;;;;;;6.75;6.00;;;;;;;;5016832;28;45520;-64
2022/04/24 09:11:30;;;;;;;;;5.00;4.25;;;;;;;;5016210;28;45545;-67
2022/04/24 09:16:46;;;;;;;;;7.00;7.00;;;;;;;;5014474;28;45439;-65
2022/04/24 09:19:21;;;;;;;;;19.00;18.00;;;;;;;;5016569;28;45540;-65
2022/04/24 09:21:47;;;;;;;;;11.33;9.33;;;;;;;;5016442;28;46119;-65
2022/04/24 09:24:13;;;;;;;;;8.00;7.33;;;;;;;;5016593;28;45464;-66
2022/04/24 09:26:48;;;;;;;;;9.00;7.00;;;;;;;;5016543;28;45628;-66
2022/04/24 09:29:13;;;;;;;;;12.50;10.75;;;;;;;;5016933;28;45794;-65
2022/04/24 09:31:43;;;;;;;;;8.00;8.00;;;;;;;;5016953;28;46013;-65
2022/04/24 09:34:08;;;;;;;;;7.00;6.00;;;;;;;;5017659;28;45407;-66
2022/04/24 09:36:33;;;;;;;;;11.75;10.00;;;;;;;;5017860;28;45305;-65
2022/04/24 09:38:59;;;;;;;;;9.00;9.00;;;;;;;;5017462;28;45485;-67
2022/04/24 09:41:24;;;;;;;;;7.00;7.00;;;;;;;;5016802;28;46279;-67
2022/04/24 09:43:50;;;;;;;;;19.25;18.50;;;;;;;;5016736;28;45393;-66
2022/04/24 09:46:35;;;;;;;;;8.25;8.00;;;;;;;;5016832;28;45510;-66
2022/04/24 09:49:02;;;;;;;;;13.25;11.75;;;;;;;;5014736;28;45339;-65
2022/04/24 09:51:27;;;;;;;;;13.50;12.25;;;;;;;;5016862;28;45602;-65
2022/04/24 09:53:56;;;;;;;;;12.50;11.75;;;;;;;;5014142;28;45446;-66
2022/04/24 09:56:22;;;;;;;;;7.00;6.00;;;;;;;;5016796;28;45560;-65
2022/04/24 09:58:48;;;;;;;;;22.50;21.25;;;;;;;;5016871;28;45434;-66
2022/04/24 10:01:13;;;;;;;;;19.50;18.25;;;;;;;;5012871;28;45666;-65
2022/04/24 10:03:39;;;;;;;;;18.25;17.50;;;;;;;;5015128;28;45754;-65
2022/04/24 10:06:05;;;;;;;;;8.50;8.00;;;;;;;;5015430;28;45393;-65
2022/04/24 10:08:32;;;;;;;;;6.00;6.00;;;;;;;;5015789;28;45328;-68
2022/04/24 10:11:01;;;;;;;;;8.00;8.00;;;;;;;;5015526;28;46233;-66
2022/04/24 10:13:26;;;;;;;;;9.25;8.75;;;;;;;;5012765;28;45456;-68
2022/04/24 10:16:15;;;;;;;;;19.00;18.25;;;;;;;;5014110;28;45501;-69
2022/04/24 10:18:47;;;;;;;;;31.00;28.75;;;;;;;;5009008;28;45383;-67
2022/04/24 10:21:48;;;;;;;;;12.75;11.50;;;;;;;;5014830;28;45382;-74
2022/04/24 10:24:13;;;;;;;;;27.25;24.00;;;;;;;;4957089;28;45488;-70
2022/04/24 10:26:39;;;;;;;;;20.25;18.75;;;;;;;;5007403;28;46088;-69
2022/04/24 10:29:09;;;;;;;;;21.25;19.25;;;;;;;;5015965;28;45594;-70
2022/04/24 10:31:44;;;;;;;;;9.50;8.75;;;;;;;;5016084;28;46276;-68
2022/04/24 10:34:11;;;;;;;;;7.50;7.00;;;;;;;;5013855;28;45375;-69
2022/04/24 10:36:37;;;;;;;;;9.25;8.25;;;;;;;;5014429;28;45769;-67
2022/04/24 10:39:13;;;;;;;;;8.25;8.25;;;;;;;;5014999;28;45651;-68
2022/04/24 10:41:39;;;;;;;;;15.50;14.00;;;;;;;;5013613;28;46144;-65
2022/04/24 10:44:08;;;;;;;;;11.50;11.25;;;;;;;;5015897;28;45573;-69
2022/04/24 10:46:38;;;;;;;;;7.00;7.00;;;;;;;;5016398;28;45637;-67
2022/04/24 10:49:10;;;;;;;;;7.25;6.00;;;;;;;;5016188;28;45340;-69
2022/04/24 10:51:37;;;;;;;;;8.00;7.00;;;;;;;;5016375;28;46027;-68
2022/04/24 10:54:07;;;;;;;;;12.00;10.50;;;;;;;;5016633;28;45374;-68
2022/04/24 10:56:32;;;;;;;;;8.25;6.75;;;;;;;;5016839;28;45430;-66
2022/04/24 10:59:15;;;;;;;;;25.25;22.25;;;;;;;;5016843;28;45402;-67
2022/04/24 11:01:42;;;;;;;;;15.50;14.50;;;;;;;;5016550;28;46119;-67
2022/04/24 11:04:09;;;;;;;;;18.50;17.25;;;;;;;;5016273;28;45517;-70
2022/04/24 11:06:35;;;;;;;;;13.00;12.00;;;;;;;;5016515;28;45236;-67
2022/04/24 11:09:09;;;;;;;;;9.00;8.75;;;;;;;;5016804;28;45418;-67
2022/04/24 11:11:45;;;;;;;;;13.50;13.50;;;;;;;;5016327;28;46001;-67
2022/04/24 11:14:10;;;;;;;;;14.00;12.75;;;;;;;;5016338;28;45233;-66
2022/04/24 11:16:35;;;;;;;;;17.75;16.75;;;;;;;;5016499;28;45463;-71
2022/04/24 11:19:00;;;;;;;;;17.00;15.25;;;;;;;;5017112;28;45246;-68
2022/04/24 11:21:29;;;;;;;;;14.75;14.00;;;;;;;;5016192;28;46064;-69
2022/04/24 11:24:00;;;;;;;;;15.25;14.00;;;;;;;;5015983;28;45501;-69
2022/04/24 11:26:29;;;;;;;;;16.25;15.50;;;;;;;;5018184;28;45458;-68
2022/04/24 11:28:54;;;;;;;;;19.75;19.50;;;;;;;;5020069;28;45504;-70
2022/04/24 11:31:21;;;;;;;;;38.25;30.75;;;;;;;;5019579;28;46191;-69
2022/04/24 11:33:51;;;;;;;;;14.50;14.50;;;;;;;;5019994;28;45505;-70
2022/04/24 11:36:17;;;;;;;;;25.75;23.50;;;;;;;;5019950;28;45273;-70
2022/04/24 11:38:44;;;;;;;;;46.50;36.00;;;;;;;;5019905;28;45498;-70
2022/04/24 11:41:12;;;;;;;;;47.50;36.75;;;;;;;;5019588;28;46040;-71
2022/04/24 11:43:43;;;;;;;;;14.75;13.75;;;;;;;;5019335;28;45309;-66
2022/04/24 11:51:36;;;;;;;;;16.25;13.50;;;;;;;;5019218;28;45493;-71
2022/04/24 11:54:02;;;;;;;;;14.75;13.25;;;;;;;;5019787;28;45391;-69
2022/04/24 11:56:27;;;;;;;;;12.00;11.25;;;;;;;;5019679;28;45234;-70
2022/04/24 11:59:09;;;;;;;;;12.25;11.75;;;;;;;;5019866;28;45406;-72
2022/04/24 12:01:35;;;;;;;;;15.00;12.50;;;;;;;;5019468;28;46129;-70
2022/04/24 12:04:00;;;;;;;;;9.50;9.00;;;;;;;;5019351;28;45464;-71
2022/04/24 12:06:30;;;;;;;;;11.00;10.00;;;;;;;;5019055;28;45409;-71
2022/04/24 12:08:58;;;;;;;;;17.00;15.50;;;;;;;;5019315;28;45382;-70
2022/04/24 12:11:25;;;;;;;;;33.00;29.75;;;;;;;;5019013;28;45284;-70
2022/04/24 12:14:11;;;;;;;;;56.25;44.00;;;;;;;;5018813;28;45718;-70
2022/04/24 12:16:40;;;;;;;;;44.50;35.25;;;;;;;;5018925;28;45304;-68
2022/04/24 12:19:06;;;;;;;;;42.75;34.50;;;;;;;;5019572;28;45752;-68
2022/04/24 12:21:32;;;;;;;;;12.00;12.00;;;;;;;;5018868;28;45519;-69
2022/04/24 12:23:58;;;;;;;;;33.50;31.00;;;;;;;;5018360;28;45340;-71
2022/04/24 12:26:24;;;;;;;;;10.00;9.00;;;;;;;;5018839;28;45548;-70
2022/04/24 12:28:49;;;;;;;;;12.33;11.00;;;;;;;;5019197;28;45357;-70
2022/04/24 12:31:21;;;;;;;;;25.75;22.75;;;;;;;;5018428;28;45486;-72
2022/04/24 12:33:47;;;;;;;;;10.50;10.00;;;;;;;;5018809;28;45934;-71
2022/04/24 12:36:14;;;;;;;;;11.75;10.25;;;;;;;;5018635;28;45317;-71
2022/04/24 12:38:40;;;;;;;;;15.75;13.75;;;;;;;;5018007;28;45407;-71
2022/04/24 12:41:08;;;;;;;;;12.33;11.00;;;;;;;;5018929;28;46243;-69
2022/04/24 12:43:34;;;;;;;;;7.67;7.00;;;;;;;;5019123;28;45474;-70
2022/04/24 12:45:59;;;;;;;;;8.00;7.67;;;;;;;;5018758;28;45452;-69
2022/04/24 12:48:25;;;;;;;;;8.00;8.00;;;;;;;;5018811;28;45461;-68
2022/04/24 12:50:54;;;;;;;;;7.33;6.67;;;;;;;;5018386;28;45743;-68
2022/04/24 12:53:20;;;;;;;;;13.67;13.00;;;;;;;;5018591;28;45546;-68
2022/04/24 12:55:46;;;;;;;;;9.33;9.33;;;;;;;;5018485;28;45514;-68
2022/04/24 12:58:14;;;;;;;;;7.33;7.00;;;;;;;;5018525;28;45305;-68
2022/04/24 13:00:43;;;;;;;;;9.33;6.67;;;;;;;;5018401;28;46113;-67
2022/04/24 13:03:09;;;;;;;;;12.33;11.00;;;;;;;;5018050;28;45558;-68
2022/04/24 13:05:37;;;;;;;;;9.67;9.67;;;;;;;;5018620;28;45499;-68
2022/04/24 13:08:03;;;;;;;;;8.33;8.33;;;;;;;;5018597;28;45303;-66
2022/04/24 13:10:28;;;;;;;;;8.00;5.67;;;;;;;;5016045;28;45878;-68
2022/04/24 13:13:00;;;;;;;;;7.00;6.00;;;;;;;;5015443;28;45358;-65
2022/04/24 13:15:31;;;;;;;;;9.67;7.00;;;;;;;;5016604;28;45315;-66
2022/04/24 13:18:09;;;;;;;;;7.33;6.67;;;;;;;;5016995;28;46609;-67
2022/04/24 13:20:36;;;;;;;;;10.33;6.00;;;;;;;;5016084;28;46273;-65
2022/04/24 13:23:02;;;;;;;;;6.00;6.00;;;;;;;;5016493;28;45551;-67
2022/04/24 13:25:28;;;;;;;;;7.00;6.00;;;;;;;;5016705;28;45324;-67
2022/04/24 13:27:53;;;;;;;;;6.67;5.67;;;;;;;;5016992;28;45513;-67
2022/04/24 13:30:18;;;;;;;;;7.00;6.00;;;;;;;;5016781;28;46162;-66
2022/04/24 13:32:44;;;;;;;;;7.00;6.67;;;;;;;;5017153;28;45320;-71
2022/04/24 13:35:09;;;;;;;;;6.33;5.67;;;;;;;;5017331;28;45696;-66
2022/04/24 13:40:19;;;;;;;;;6.00;6.00;;;;;;;;5016560;28;45354;-68
2022/04/24 13:42:44;;;;;;;;;5.00;5.00;;;;;;;;5016405;28;45366;-70
2022/04/24 13:45:10;;;;;;;;;6.00;6.00;;;;;;;;5016581;28;45363;-70
2022/04/24 13:47:35;;;;;;;;;8.67;7.00;;;;;;;;5016445;28;45511;-70
2022/04/24 13:50:01;;;;;;;;;6.33;6.00;;;;;;;;5015158;28;46011;-70
2022/04/24 13:52:26;;;;;;;;;4.00;4.00;;;;;;;;5016232;28;45327;-69
2022/04/24 13:54:53;;;;;;;;;3.67;3.67;;;;;;;;5016592;28;45233;-67
2022/04/24 13:57:19;;;;;;;;;5.67;5.00;;;;;;;;5016285;28;45450;-68
2022/04/24 13:59:45;;;;;;;;;7.00;6.00;;;;;;;;5016119;28;46208;-70
2022/04/24 14:02:10;;;;;;;;;8.33;7.67;;;;;;;;5016812;28;45353;-69
2022/04/24 14:04:36;;;;;;;;;5.67;5.00;;;;;;;;5016023;28;45477;-67
2022/04/24 14:07:06;;;;;;;;;7.33;6.33;;;;;;;;5016662;28;45769;-68
2022/04/24 14:09:31;;;;;;;;;6.00;6.00;;;;;;;;5014667;28;46491;-69
2022/04/24 14:11:59;;;;;;;;;5.33;5.33;;;;;;;;5015970;28;45404;-69
2022/04/24 14:14:25;;;;;;;;;5.33;5.00;;;;;;;;5015974;28;45416;-70
2022/04/24 14:16:50;;;;;;;;;5.00;4.00;;;;;;;;5015628;28;45382;-68
2022/04/24 14:19:16;;;;;;;;;5.00;5.00;;;;;;;;5015975;28;45493;-67
2022/04/24 14:21:41;;;;;;;;;5.33;5.00;;;;;;;;5015782;28;45469;-68
2022/04/24 14:24:06;;;;;;;;;5.67;5.67;;;;;;;;5016314;28;45394;-70
2022/04/24 14:26:33;;;;;;;;;7.00;6.00;;;;;;;;5016021;28;45748;-70
2022/04/24 14:28:58;;;;;;;;;6.00;5.00;;;;;;;;5015748;28;45493;-68
2022/04/24 14:31:25;;;;;;;;;4.00;4.00;;;;;;;;5015432;28;45692;-72
2022/04/24 14:33:51;;;;;;;;;3.67;3.33;;;;;;;;5016026;28;45398;-69
2022/04/24 14:36:16;;;;;;;;;9.00;9.00;;;;;;;;5015801;28;45456;-69
2022/04/24 14:38:42;;;;;;;;;7.00;7.00;;;;;;;;5015717;28;45698;-69
2022/04/24 14:41:09;;;;;;;;;6.00;5.00;;;;;;;;5015753;28;45842;-64
2022/04/24 14:43:35;;;;;;;;;8.00;7.33;;;;;;;;5015916;28;45308;-66